M I D A S
Marine Information and Data Acquisition System
Tripno 2155 of the Zeeleeuw from 2011-08-01 08:31:43 to 2011-08-01 09:38:39
Back to CruiseResearch ActivitiesStationsMapUnderway DataData graphs

EquipmentUnitsComment
TimeDGPSUTC
LatitudeDGPSDM.mWGS84
LongitudeDGPSDM.mWGS84
HeadingGyrodeg 
SOGDGPSknotsSpeed over ground
COGDGPSdegCourse over ground
DepthEcho soundermeters200 kHz
Missing or incorrect values are displayed as -999
Navigation data collected by the RV Zeeleeuw from 2011-08-01 06:11:46 to 2011-08-01 10:16:22
Time Latitude Longitude Heading SOG COG Depth
2011-08-01 06:12:50 51°13.636 2°56.019 125.9 -999 205 -999
2011-08-01 06:13:51 51°13.637 2°56.019 125.9 -999 204 -999
2011-08-01 06:14:50 51°13.637 2°56.02 126.4 -999 272 -999
2011-08-01 06:15:50 51°13.637 2°56.018 126.4 -999 237 -999
2011-08-01 06:16:51 51°13.636 2°56.019 126.4 -999 125 -999
2011-08-01 06:17:50 51°13.637 2°56.019 126.4 -999 120 -999
2011-08-01 06:18:50 51°13.636 2°56.019 126.4 -999 357 -999
2011-08-01 06:19:50 51°13.636 2°56.018 126.4 -999 32 -999
2011-08-01 06:20:51 51°13.636 2°56.018 126.6 -999 1 -999
2011-08-01 06:21:51 51°13.635 2°56.019 126.8 -999 71 -999
2011-08-01 06:22:50 51°13.636 2°56.019 126.9 -999 81 -999
2011-08-01 06:23:50 51°13.636 2°56.019 126.7 -999 334 -999
2011-08-01 06:24:51 51°13.636 2°56.019 126.4 -999 32 -999
2011-08-01 06:25:51 51°13.636 2°56.019 126.9 -999 34 -999
2011-08-01 06:26:50 51°13.636 2°56.018 126.7 -999 101 -999
2011-08-01 06:27:50 51°13.636 2°56.019 127.1 -999 236 -999
2011-08-01 06:28:50 51°13.637 2°56.019 127 -999 127 -999
2011-08-01 06:29:50 51°13.637 2°56.019 127.1 -999 168 -999
2011-08-01 06:30:51 51°13.637 2°56.018 126.4 -999 286 -999
2011-08-01 06:31:51 51°13.637 2°56.018 127.2 -999 307 -999
2011-08-01 06:32:51 51°13.637 2°56.017 127.1 -999 61 -999
2011-08-01 06:33:50 51°13.636 2°56.018 127.4 -999 312 -999
2011-08-01 06:34:49 51°13.637 2°56.018 127.3 -999 251 6
2011-08-01 06:35:48 51°13.637 2°56.017 127.2 -999 227 6
2011-08-01 06:36:47 51°13.637 2°56.017 127.1 -999 101 6
2011-08-01 06:37:47 51°13.637 2°56.017 127.1 -999 288 6
2011-08-01 06:38:47 51°13.637 2°56.017 127.1 -999 66 6
2011-08-01 06:39:47 51°13.637 2°56.017 127.1 -999 7 6
2011-08-01 06:40:47 51°13.638 2°56.017 127.1 -999 172 6
2011-08-01 06:41:46 51°13.638 2°56.018 127.3 -999 232 6
2011-08-01 06:42:47 51°13.637 2°56.017 127.2 -999 33 5.9
2011-08-01 06:43:47 51°13.637 2°56.017 127.1 -999 79 6
2011-08-01 06:44:47 51°13.636 2°56.017 126.9 -999 151 5.9
2011-08-01 06:45:47 51°13.637 2°56.017 127.1 -999 185 6
2011-08-01 06:46:47 51°13.637 2°56.017 127 -999 38 5.9
2011-08-01 06:47:47 51°13.637 2°56.018 127 -999 74 5.9
2011-08-01 06:48:47 51°13.637 2°56.018 126.9 -999 182 5.9
2011-08-01 06:49:47 51°13.637 2°56.019 126.9 -999 236 5.9
2011-08-01 06:50:47 51°13.637 2°56.019 126.9 -999 200 5.9
2011-08-01 06:51:47 51°13.637 2°56.018 126.8 -999 197 5.9
2011-08-01 06:52:47 51°13.637 2°56.018 126.7 -999 193 5.9
2011-08-01 06:53:47 51°13.637 2°56.018 126.7 -999 186 5.9
2011-08-01 06:54:46 51°13.637 2°56.018 126.6 -999 313 5.9
2011-08-01 06:55:47 51°13.636 2°56.017 126.6 -999 45 5.9
2011-08-01 06:56:47 51°13.636 2°56.017 126.5 -999 46 5.9
2011-08-01 06:57:47 51°13.637 2°56.016 126.5 -999 34 5.9
2011-08-01 06:58:47 51°13.637 2°56.016 126.5 -999 235 5.8
2011-08-01 06:59:47 51°13.637 2°56.017 126.5 -999 198 5.8
2011-08-01 07:00:47 51°13.637 2°56.017 126.4 -999 198 5.8
2011-08-01 07:01:46 51°13.637 2°56.017 126.3 -999 174 5.8
2011-08-01 07:02:47 51°13.637 2°56.018 126.3 -999 190 5.8
2011-08-01 07:03:47 51°13.637 2°56.018 126.3 -999 152 5.8
2011-08-01 07:04:47 51°13.638 2°56.017 126.2 -999 73 5.8
2011-08-01 07:05:47 51°13.638 2°56.017 126.2 -999 28 5.8
2011-08-01 07:06:46 51°13.638 2°56.017 126.2 -999 188 5.8
2011-08-01 07:07:46 51°13.637 2°56.017 126.2 -999 76 5.8
2011-08-01 07:08:47 51°13.637 2°56.017 126.2 -999 4 5.8
2011-08-01 07:09:47 51°13.637 2°56.018 126.1 -999 1 5.8
2011-08-01 07:10:47 51°13.637 2°56.018 126.2 -999 354 5.8
2011-08-01 07:11:47 51°13.637 2°56.018 125.9 -999 92 5.8
2011-08-01 07:12:47 51°13.638 2°56.018 125.9 -999 201 5.8
2011-08-01 07:13:49 51°13.638 2°56.019 125.9 -999 75 5.8
2011-08-01 07:14:47 51°13.638 2°56.019 125.9 -999 122 5.8
2011-08-01 07:15:47 51°13.638 2°56.019 126 -999 27 5.8
2011-08-01 07:16:47 51°13.637 2°56.019 125.9 -999 27 5.8
2011-08-01 07:17:47 51°13.637 2°56.019 125.9 -999 58 5.8
2011-08-01 07:18:47 51°13.637 2°56.019 126 -999 205 5.8
2011-08-01 07:19:47 51°13.637 2°56.019 125.9 -999 12 5.8
2011-08-01 07:20:47 51°13.637 2°56.018 125.9 -999 206 5.8
2011-08-01 07:21:47 51°13.637 2°56.017 125.9 -999 186 5.8
2011-08-01 07:22:47 51°13.637 2°56.017 125.9 -999 182 5.8
2011-08-01 07:23:47 51°13.638 2°56.017 125.9 -999 195 5.8
2011-08-01 07:24:47 51°13.637 2°56.018 125.8 -999 21 5.8
2011-08-01 07:25:47 51°13.637 2°56.018 125.7 -999 94 5.8
2011-08-01 07:26:47 51°13.637 2°56.019 125.7 -999 328 5.8
2011-08-01 07:27:47 51°13.638 2°56.02 125.7 -999 323 5.8
2011-08-01 07:28:47 51°13.636 2°56.018 125.7 -999 41 5.8
2011-08-01 07:29:47 51°13.636 2°56.017 125.7 -999 305 5.8
2011-08-01 07:30:47 51°13.636 2°56.018 125.7 -999 1 5.8
2011-08-01 07:31:47 51°13.635 2°56.018 125.7 -999 347 5.8
2011-08-01 07:32:47 51°13.635 2°56.018 125.7 -999 247 5.8
2011-08-01 07:33:47 51°13.636 2°56.019 125.7 -999 283 5.8
2011-08-01 07:34:47 51°13.636 2°56.018 125.7 -999 230 5.8
2011-08-01 07:35:47 51°13.637 2°56.018 125.7 -999 241 5.8
2011-08-01 07:36:47 51°13.637 2°56.017 125.7 -999 270 5.8
2011-08-01 07:37:47 51°13.638 2°56.019 125.7 -999 108 5.8
2011-08-01 07:38:47 51°13.638 2°56.019 125.7 -999 289 5.8
2011-08-01 07:39:47 51°13.638 2°56.019 125.7 -999 259 5.8
2011-08-01 07:40:47 51°13.638 2°56.018 125.7 -999 305 5.8
2011-08-01 07:41:47 51°13.638 2°56.017 125.7 -999 232 5.8
2011-08-01 07:42:47 51°13.638 2°56.017 125.7 -999 261 5.8
2011-08-01 07:43:47 51°13.638 2°56.017 125.7 -999 282 5.8
2011-08-01 07:44:47 51°13.638 2°56.017 125.7 -999 61 5.8
2011-08-01 07:45:47 51°13.638 2°56.017 125.7 -999 70 5.8
2011-08-01 07:46:47 51°13.638 2°56.018 125.7 -999 333 5.8
2011-08-01 07:47:47 51°13.636 2°56.018 125.7 -999 235 5.8
2011-08-01 07:48:47 51°13.637 2°56.018 125.7 -999 238 5.8
2011-08-01 07:49:47 51°13.637 2°56.018 125.7 -999 280 5.8
2011-08-01 07:50:47 51°13.635 2°56.018 125.7 -999 61 5.9
2011-08-01 07:51:47 51°13.636 2°56.018 125.7 -999 5 5.9
2011-08-01 07:52:47 51°13.636 2°56.018 125.7 -999 269 5.9
2011-08-01 07:53:47 51°13.637 2°56.019 125.8 -999 65 5.9
2011-08-01 07:54:47 51°13.637 2°56.019 125.8 -999 47 5.9
2011-08-01 07:55:47 51°13.637 2°56.019 125.9 -999 331 5.9
2011-08-01 07:56:47 51°13.637 2°56.019 125.9 -999 258 6
2011-08-01 07:57:47 51°13.636 2°56.018 125.9 -999 309 5.9
2011-08-01 07:58:47 51°13.636 2°56.018 126 -999 218 6
2011-08-01 07:59:47 51°13.635 2°56.018 126 -999 37 5.9
2011-08-01 08:00:47 51°13.636 2°56.018 126 -999 269 5.9
2011-08-01 08:01:47 51°13.636 2°56.018 126 -999 294 5.9
2011-08-01 08:02:47 51°13.636 2°56.018 126.1 -999 310 6
2011-08-01 08:03:47 51°13.636 2°56.018 126.1 -999 61 6
2011-08-01 08:04:47 51°13.637 2°56.017 126.1 -999 243 5.9
2011-08-01 08:05:47 51°13.636 2°56.017 126.1 -999 26 6
2011-08-01 08:06:47 51°13.637 2°56.017 126.2 -999 335 6
2011-08-01 08:07:47 51°13.635 2°56.018 126.2 -999 305 6
2011-08-01 08:08:47 51°13.635 2°56.018 126.2 -999 292 6
2011-08-01 08:09:47 51°13.636 2°56.018 126.2 -999 23 6
2011-08-01 08:10:47 51°13.637 2°56.017 126.3 -999 307 6
2011-08-01 08:11:47 51°13.637 2°56.017 126.3 -999 312 6
2011-08-01 08:12:47 51°13.637 2°56.018 126.3 -999 330 6
2011-08-01 08:13:47 51°13.637 2°56.018 126.4 -999 311 6.1
2011-08-01 08:14:47 51°13.635 2°56.019 126.3 0.1 73 6.1
2011-08-01 08:15:47 51°13.635 2°56.019 126.5 -999 294 6.1
2011-08-01 08:16:47 51°13.635 2°56.019 126.5 -999 232 6.1
2011-08-01 08:17:47 51°13.635 2°56.019 126.2 -999 272 6.1
2011-08-01 08:18:47 51°13.636 2°56.019 126.3 -999 328 6.1
2011-08-01 08:19:47 51°13.637 2°56.017 128.4 0.1 247 6.3
2011-08-01 08:20:47 51°13.636 2°56.016 133.2 0.1 233 6.2
2011-08-01 08:21:47 51°13.634 2°56.015 140.2 0.7 148 6.3
2011-08-01 08:22:47 51°13.601 2°56.057 140.7 3.7 139 10.6
2011-08-01 08:23:47 51°13.551 2°56.138 128.3 4.5 127 10.9
2011-08-01 08:24:47 51°13.524 2°56.227 101.2 3.4 98 9.8
2011-08-01 08:25:47 51°13.529 2°56.275 62.7 -999 100 9.5
2011-08-01 08:26:47 51°13.537 2°56.288 30.2 0.6 207 9.7
2011-08-01 08:27:50 51°13.53 2°56.279 353.3 1.8 350 -999
2011-08-01 08:28:49 51°13.536 2°56.28 318 1 129 9.6
2011-08-01 08:29:50 51°13.539 2°56.257 281.7 2.7 279 9.2
2011-08-01 08:30:48 51°13.553 2°56.152 286.9 5.1 288 10.8
2011-08-01 08:31:47 51°13.598 2°56.026 307.4 6.1 306 -999
2011-08-01 08:32:48 51°13.664 2°55.883 307.3 7.1 307 9.7
2011-08-01 08:33:47 51°13.742 2°55.729 313.4 7.9 312 10.7
2011-08-01 08:34:47 51°13.851 2°55.613 335.9 8.1 335 10.5
2011-08-01 08:35:49 51°13.981 2°55.527 339.3 8.4 338 10.5
2011-08-01 08:36:49 51°14.112 2°55.437 337.8 8.8 337 10.4
2011-08-01 08:37:47 51°14.243 2°55.333 332 9.3 331 10.4
2011-08-01 08:38:48 51°14.389 2°55.196 329.9 10.7 329 10.4
2011-08-01 08:39:47 51°14.54 2°55.024 323.3 12.1 314 11.1
2011-08-01 08:40:47 51°14.695 2°54.808 322.5 12.6 315 10.8
2011-08-01 08:41:47 51°14.85 2°54.577 325.3 12.8 319 10.9
2011-08-01 08:42:47 51°15.032 2°54.442 355.6 11.8 351 10.8
2011-08-01 08:43:47 51°15.221 2°54.405 351.6 11.5 341 8.1
2011-08-01 08:44:47 51°15.407 2°54.328 359.8 11.5 357 8.7
2011-08-01 08:45:47 51°15.595 2°54.293 349.3 11.7 343 9.3
2011-08-01 08:46:47 51°15.786 2°54.251 359.1 11.6 350 9.5
2011-08-01 08:47:47 51°15.975 2°54.204 11.4 11.2 10 9.9
2011-08-01 08:48:47 51°16.132 2°54.223 1.5 6.6 355 10.3
2011-08-01 08:49:47 51°16.196 2°54.231 25.6 2.4 7 10.3
2011-08-01 08:50:47 51°16.212 2°54.229 45.3 0.4 318 10.4
2011-08-01 08:51:47 51°16.215 2°54.224 43.3 0.3 304 10.4
2011-08-01 08:52:47 51°16.219 2°54.212 26.5 0.7 300 10.3
2011-08-01 08:53:47 51°16.225 2°54.192 13.2 1 297 10.5
2011-08-01 08:54:47 51°16.231 2°54.168 9.8 1 294 10.6
2011-08-01 08:55:47 51°16.237 2°54.145 22 0.8 290 10.6
2011-08-01 08:56:47 51°16.24 2°54.129 37.7 0.5 283 10.5
2011-08-01 08:57:47 51°16.24 2°54.119 50.9 0.3 249 10.6
2011-08-01 08:58:47 51°16.246 2°54.138 59.6 2.9 65 10.4
2011-08-01 08:59:47 51°16.255 2°54.251 80.6 4.3 90 10.5
2011-08-01 09:00:47 51°16.276 2°54.326 49.8 2.5 46 10.5
2011-08-01 09:01:47 51°16.301 2°54.35 36.6 1.4 21 10.6
2011-08-01 09:02:47 51°16.314 2°54.363 52.7 0.7 44 10.7
2011-08-01 09:03:47 51°16.319 2°54.373 56.1 0.4 59 10.6
2011-08-01 09:04:47 51°16.322 2°54.378 50.1 0.2 42 10.7
2011-08-01 09:05:47 51°16.324 2°54.375 42.3 0.4 300 10.7
2011-08-01 09:06:47 51°16.326 2°54.365 38.7 0.4 285 10.8
2011-08-01 09:07:47 51°16.328 2°54.353 39 0.5 279 10.7
2011-08-01 09:08:47 51°16.352 2°54.328 343.5 3.3 315 10.9
2011-08-01 09:09:47 51°16.421 2°54.216 328.1 8.5 319 10.9
2011-08-01 09:10:47 51°16.529 2°54.004 309.9 11.4 301 11.1
2011-08-01 09:11:47 51°16.632 2°53.715 306.4 13 300 11.3
2011-08-01 09:12:47 51°16.744 2°53.422 307.5 12.9 302 10.9
2011-08-01 09:13:47 51°16.859 2°53.138 309.3 12.5 303 8.9
2011-08-01 09:14:47 51°16.969 2°52.859 312.4 12.6 307 8.9
2011-08-01 09:15:47 51°17.107 2°52.61 319.9 12.4 312 9.2
2011-08-01 09:16:47 51°17.241 2°52.355 312.9 12.7 305 9.8
2011-08-01 09:17:47 51°17.379 2°52.112 327.5 12.2 321 11
2011-08-01 09:18:47 51°17.535 2°51.906 327.4 12.2 319 10.2
2011-08-01 09:19:47 51°17.678 2°51.675 320.9 12.2 314 9.6
2011-08-01 09:20:47 51°17.836 2°51.477 334.7 12.1 327 10
2011-08-01 09:21:47 51°17.997 2°51.277 327.2 12.4 319 11
2011-08-01 09:22:47 51°18.16 2°51.08 333.8 12.2 324 12.3
2011-08-01 09:23:47 51°18.324 2°50.917 349.9 9.2 344 13.2
2011-08-01 09:24:47 51°18.416 2°50.91 23 3.5 11 13.6
2011-08-01 09:25:47 51°18.441 2°50.926 46 0.8 40 13.8
2011-08-01 09:26:47 51°18.443 2°50.928 51.9 0.1 227 13.6
2011-08-01 09:27:47 51°18.444 2°50.923 39.5 0.4 287 13.7
2011-08-01 09:28:47 51°18.446 2°50.911 29 0.6 280 13.7
2011-08-01 09:29:47 51°18.448 2°50.893 19.5 0.8 281 13.7
2011-08-01 09:30:47 51°18.451 2°50.869 10.6 1 281 13.8
2011-08-01 09:31:47 51°18.455 2°50.839 1.5 1.2 280 13.7
2011-08-01 09:32:47 51°18.458 2°50.805 353.3 1.4 277 13.9
2011-08-01 09:33:47 51°18.461 2°50.765 345.6 1.6 278 14.2
2011-08-01 09:34:47 51°18.474 2°50.738 23.3 1 348 14.2
2011-08-01 09:35:47 51°18.481 2°50.736 45.1 0.2 334 14.2
2011-08-01 09:36:47 51°18.482 2°50.732 47.1 0.1 295 14
2011-08-01 09:37:47 51°18.483 2°50.733 49 0.2 37 14.2
2011-08-01 09:38:47 51°18.495 2°50.754 51.3 3.2 54 14.2
2011-08-01 09:39:47 51°18.519 2°50.9 84.3 7.3 95 13.9
2011-08-01 09:40:47 51°18.425 2°51.077 135.7 10.8 142 13.4
2011-08-01 09:41:47 51°18.256 2°51.254 148.2 12.9 156 12.5
2011-08-01 09:42:47 51°18.066 2°51.407 147.5 12.7 152 11.3
2011-08-01 09:43:47 51°17.888 2°51.584 141.4 12.6 148 10.2
2011-08-01 09:44:47 51°17.7 2°51.739 148.1 13 154 9.9
2011-08-01 09:45:47 51°17.511 2°51.901 145.9 12.9 148 10.4
2011-08-01 09:46:47 51°17.34 2°52.098 137 12.8 143 11.2
2011-08-01 09:47:47 51°17.171 2°52.298 140.7 12.6 145 10.3
2011-08-01 09:48:47 51°16.983 2°52.457 150.9 12.8 156 9.6
2011-08-01 09:49:47 51°16.792 2°52.61 145.9 12.8 148 9.8
2011-08-01 09:50:47 51°16.604 2°52.769 151.5 12.6 155 11.4
2011-08-01 09:51:47 51°16.414 2°52.919 149.5 12.7 155 11.9
2011-08-01 09:52:47 51°16.224 2°53.069 147.7 12.7 151 12
2011-08-01 09:53:47 51°16.039 2°53.227 146.8 12.6 150 12.2
2011-08-01 09:54:47 51°15.855 2°53.384 146 12.6 151 12.5
2011-08-01 09:55:47 51°15.678 2°53.558 138.7 12.3 143 11.6
2011-08-01 09:56:47 51°15.516 2°53.757 138.5 12.3 141 11.6
2011-08-01 09:57:47 51°15.358 2°53.955 137.1 11.2 141 11.9
2011-08-01 09:58:47 51°15.233 2°54.104 136.7 8.2 142 11.8
2011-08-01 09:59:47 51°15.118 2°54.241 138.7 9.6 143 11.4
2011-08-01 10:00:47 51°14.97 2°54.426 137.9 12.1 143 10.7
2011-08-01 10:01:47 51°14.809 2°54.629 137.2 12.1 141 11.7
2011-08-01 10:02:47 51°14.65 2°54.832 137.6 12.3 140 11.6
2011-08-01 10:03:47 51°14.491 2°55.034 139.7 12.4 142 11.2
2011-08-01 10:04:47 51°14.34 2°55.223 146.2 10.8 146 10.8
2011-08-01 10:05:47 51°14.192 2°55.369 153.4 9.7 153 11.3
2011-08-01 10:06:47 51°14.064 2°55.466 156.8 8 156 11.3
2011-08-01 10:07:47 51°13.948 2°55.547 157.2 6.6 157 11.4
2011-08-01 10:08:47 51°13.857 2°55.61 158.3 5.9 156 11.4
2011-08-01 10:09:47 51°13.773 2°55.689 141.8 5.6 140 11.5
2011-08-01 10:10:47 51°13.715 2°55.785 131.4 4.6 129 12.1
2011-08-01 10:11:47 51°13.673 2°55.871 129.1 3.8 127 9.7
2011-08-01 10:12:47 51°13.642 2°55.95 115.2 3.3 112 11.1
2011-08-01 10:13:47 51°13.634 2°56.013 97.7 0.4 90 7.3
2011-08-01 10:14:47 51°13.634 2°56.016 110.8 0.4 104 -999
2011-08-01 10:15:47 51°13.636 2°56.019 120.5 -999 316 7.2